Terminal Aerodrome Forecast
Issued by NWS Pocatello, ID

Home | Current Version | Previous Version | Text Only | Print | Product List | Glossary On
Versions: 1 2 3 4 5 6 7 8 9 10 11 12 13 14
000
FTUS45 KPIH 041720
TAFIDA
TAF
KIDA 041720Z 0418/0518 VRB06KT P6SM SKC
     FM042000 22013G23KT P6SM SCT100
     FM050600 18007KT P6SM VCSH SCT100 BKN150=

USA.gov is the U.S. government's official web portal to all federal, state and local government web resources and services.